Flight Track Log - Related Links

Times and Time Zones

All times are in EDT time to prevent confusion due to time zone crossing. See the FLG3862 flight status page for this flight to view local times or setup timezone preferences in your user account.

Time Position Orientation Groundspeed Altitude Reporting Facility
EDT Latitude Longitude Course Direction KTS MPH feet Rate Location/Type
Sun 12:36:24 PM 44.4744 -73.3536 256° West 217 250 8,600  Level Boston Center
Sun 12:37:00 PM 44.3703 -73.6829 253° West  Level FlightAware Approximate
Sun 12:37:24 PM 44.4589 -73.4522 258° West 247 284 10,200  Level Boston Center
Sun 12:38:00 PM 44.3499 -73.8174 259° West  Level FlightAware Approximate
Sun 12:38:24 PM 44.4369 -73.5711 256° West 294 338 11,300  Level Boston Center
Sun 12:39:00 PM 44.3299 -73.9521 256° West  Level FlightAware Approximate
Sun 12:39:24 PM 44.4128 -73.6956 255° West 333 383 12,800  Level Boston Center
Sun 12:40:00 PM 44.3054 -74.0853 256° West  Level FlightAware Approximate
Sun 12:40:24 PM 44.3906 -73.8142 255° West 347 399 14,800  Level Boston Center
Sun 12:41:00 PM 44.2808 -74.2183 256° West  Level FlightAware Approximate
Sun 12:41:24 PM 44.3639 -73.9558 255° West 364 419 16,600  Level Boston Center
Sun 12:42:24 PM 44.3369 -74.0917 255° West 364 419 18,200 1,650 Climbing Boston Center
Sun 12:43:24 PM 44.3097 -74.2475 256° West 374 430 19,900 1,450 Climbing Boston Center
Sun 12:44:24 PM 44.2844 -74.3889 256° West 374 430 21,100 1,000 Climbing Boston Center
Sun 12:45:24 PM 44.2547 -74.5328 254° West 379 436 21,900 900 Climbing Boston Center
Sun 12:46:24 PM 44.2269 -74.6883 256° West 399 459 22,900 1,100 Climbing Boston Center
Sun 12:47:24 PM 44.1989 -74.8378 255° West 404 465 24,100 1,100 Climbing Boston Center
Sun 12:48:24 PM 44.1706 -74.9872 255° West 404 465 25,100 1,000 Climbing Boston Center
Sun 12:49:24 PM 44.1400 -75.1392 254° West 404 465 26,100 875 Climbing Boston Center
Sun 12:50:48 PM 44.1069 -75.3056 255° West 409 471 27,200 792 Climbing Boston Center
Sun 12:51:48 PM 44.0711 -75.4831 254° West 409 471 28,000 400 Climbing Boston Center
Sun 12:52:48 PM 44.0417 -75.6403 255° West 414 476 28,000  Level Boston Center
Sun 12:53:48 PM 44.0078 -75.8061 254° West 425 489 28,000  Level Boston Center
Sun 12:54:48 PM 43.9758 -75.9658 255° West 432 497 28,000  Level Boston Center
Sun 12:55:48 PM 43.9542 -76.1233 259° West 432 497 28,000  Level Boston Center
Sun 12:56:48 PM 43.9511 -76.2847 269° West 427 491 28,000  Level Boston Center
Sun 12:57:48 PM 43.9475 -76.4461 268° West 422 486 28,000  Level Boston Center
Sun 12:58:48 PM 43.9439 -76.6072 268° West 422 486 28,000  Level Boston Center
Sun 12:59:12 PM 43.9333 -76.6667 256° West 420 483 28,000  Level Toronto Center
Sun 01:00:12 PM 43.9167 -76.8167 261° West 420 483 28,000  Level Toronto Center
Sun 01:01:12 PM 43.9000 -77.0000 263° West 420 483 28,000  Level Toronto Center
Sun 01:02:12 PM 43.8833 -77.1333 260° West 420 483 28,000  Level Toronto Center
Sun 01:03:12 PM 43.8667 -77.3167 263° West 420 483 28,000  Level Toronto Center
Sun 01:04:12 PM 43.8667 -77.4667 270° West 420 483 28,000  Level Toronto Center
Sun 01:05:12 PM 43.8500 -77.6500 263° West 420 483 28,000  Level Toronto Center
Sun 01:06:12 PM 43.8167 -77.7833 251° West 420 483 28,000  Level Toronto Center
Sun 01:07:12 PM 43.8000 -77.9500 262° West 420 483 28,000  Level Toronto Center
Sun 01:08:12 PM 43.7833 -78.1167 262° West 420 483 28,000  Level Toronto Center
Sun 01:09:12 PM 43.7333 -78.2667 245° Southwest 430 495 28,000  Level Toronto Center
Sun 01:10:12 PM 43.6833 -78.4167 245° Southwest 440 506 28,000  Level Toronto Center
Sun 01:11:12 PM 43.6333 -78.5500 243° Southwest 440 506 28,000  Level Toronto Center
Sun 01:12:12 PM 43.5833 -78.7167 248° West 440 506 28,000  Level Toronto Center
Sun 01:13:12 PM 43.5167 -78.8500 235° Southwest 440 506 28,000  Level Toronto Center
Sun 01:14:12 PM 43.4667 -79.0167 248° West 440 506 28,000  Level Toronto Center
Sun 01:15:12 PM 43.4000 -79.1500 235° Southwest 440 506 28,000  Level Toronto Center
Sun 01:16:12 PM 43.3500 -79.2833 243° Southwest 440 506 28,000  Level Toronto Center
Sun 01:17:12 PM 43.2833 -79.4333 239° Southwest 440 506 28,000  Level Toronto Center
Sun 01:18:12 PM 43.2167 -79.5833 239° Southwest 440 506 28,000  Level Toronto Center
Sun 01:19:12 PM 43.1667 -79.7167 243° Southwest 430 495 28,000  Level Toronto Center
Sun 01:20:12 PM 43.1000 -79.8833 241° Southwest 430 495 28,000  Level Toronto Center
Sun 01:21:12 PM 43.0500 -80.0167 243° Southwest 430 495 28,000  Level Toronto Center
Sun 01:22:12 PM 43.0000 -80.1500 243° Southwest 430 495 28,000  Level Toronto Center
Sun 01:23:12 PM 42.9333 -80.3167 241° Southwest 430 495 28,000 -600 Level Toronto Center
Sun 01:24:12 PM 42.8833 -80.4500 243° Southwest 430 495 26,800 -2,400 Descending Toronto Center
Sun 01:25:12 PM 42.8167 -80.5833 236° Southwest 430 495 23,200 -2,054 Descending Toronto Center
Sun 01:26:03 PM 42.7789 -80.7161 249° West 413 475 23,000 -108 Descending Cleveland Center
Sun 01:27:03 PM 42.7225 -80.8461 239° Southwest 403 464 23,000  Level Cleveland Center
Sun 01:28:03 PM 42.6950 -80.9731 254° West 393 452 23,000  Level Cleveland Center
Sun 01:29:03 PM 42.6819 -81.1169 263° West 387 445 23,000  Level Cleveland Center
Sun 01:30:03 PM 42.6644 -81.2525 260° West 381 438 23,000  Level Cleveland Center
Sun 01:31:03 PM 42.6511 -81.3906 263° West 381 438 23,000  Level Cleveland Center
Sun 01:32:03 PM 42.6333 -81.5286 260° West 374 430 23,000  Level Cleveland Center
Sun 01:33:03 PM 42.6178 -81.6639 261° West 368 423 23,000  Level Cleveland Center
Sun 01:34:03 PM 42.5997 -81.7989 260° West 368 423 23,000 -50 Level Cleveland Center
Sun 01:35:03 PM 42.5814 -81.9311 259° West 368 423 22,900 -1,250 Descending Cleveland Center
Sun 01:36:03 PM 42.5672 -82.0717 262° West 373 429 20,500 -2,550 Descending Cleveland Center
Sun 01:37:03 PM 42.5486 -82.2206 260° West 383 441 17,800 -2,550 Descending Cleveland Center
Sun 01:38:03 PM 42.5297 -82.3639 260° West 390 449 15,400 -2,765 Descending Cleveland Center
Sun 01:38:45 PM 42.5175 -82.4789 262° West 386 444 13,100 -2,800 Descending Cleveland Center
Sun 01:39:03 PM 42.5128 -82.5069 257° West 390 449 12,600 -1,222 Descending Cleveland Center
Sun 01:39:39 PM 42.4861 -82.6019 249° West 373 429 12,000 -600 Descending Cleveland Center
Sun 01:40:03 PM 42.4753 -82.6353 246° West 383 441 12,000  Level Cleveland Center
Sun 01:40:40 PM 42.4422 -82.7300 245° Southwest 369 425 12,000  Level Cleveland Center
Sun 01:41:41 PM 42.4003 -82.8550 246° West 366 421 12,000  Level Cleveland Center
Sun 01:42:48 PM 42.3475 -82.9881 242° Southwest 364 419 12,000  Level Cleveland Center
Sun 01:43:49 PM 42.3031 -83.1156 245° Southwest 362 417 12,000 -295 Level Cleveland Center
Sun 01:44:50 PM 42.2383 -83.2083 227° Southwest 334 384 11,400 -1,078 Descending Cleveland Center
Sun 01:45:57 PM 42.1517 -83.2664 206° Southwest 293 337 9,700 -1,623 Descending Cleveland Center
Sun 01:46:52 PM 42.0903 -83.3058 205° Southwest 285 328 8,100 -1,914 Descending Cleveland Center
Sun 01:47:53 PM 42.0203 -83.3558 208° Southwest 283 326 6,000 -1,875 Descending Cleveland Center
Sun 01:49:00 PM 41.9439 -83.4056 206° Southwest 267 307 4,100 -938 Descending Cleveland Center
Sun 01:50:01 PM 41.8847 -83.4419 205° Southwest 215 247 4,000 -98 Descending Cleveland Center

Login

Don't have an account? Register now (free) for customized features, flight alerts, and more!